Armstrong, Missouri
Current Conditions -  °F | °C
As of 1:55 AM on Monday 24 Nov 2014 (Local Time) from KVER Reporting Station
Overcast Overcast  
Wind Chill:   Ceiling: 1800
Heat Index:   Visibility: 10mi
Dew Point:   Wind: 6mph
Humidity: 96%   Direction: 280°W
Pressure: 29.43"   Gusts: NA
Location:  39.27°N, 92.7°W
Report Text: KVER 240755Z AUTO 28005KT 10SM SCT012 BKN018 OVC031 03/03 A2943 RMK AO2 T00310025
Loading
Personal Weather Stations






























Interactive Weather Map New forecast layout! Learn more

10-Day Weather Forecast

Advertisements
Track Severe Weather on mobile